Time;durP1;ratioP1;P1;durP2;ratioP2;P2;SDS_P1;SDS_P2;PMS_P1;PMS_P2;Temp;Humidity;BMP_temperature;BMP_pressure;BME280_temperature;BME280_humidity;BME280_pressure;Samples;Min_cycle;Max_cycle;Signal;HPM_P1;HPM_P2
2023/05/04 00:00:42;;;;;;;0.60;0.60;;;16.90;99.90;;;;;;4973874;28;20483;-86
2023/05/04 00:03:07;;;;;;;0.63;0.50;;;16.90;99.90;;;;;;4957152;28;20535;-85
2023/05/04 00:05:33;;;;;;;0.05;0.05;;;16.80;99.90;;;;;;4973957;28;20027;-85
2023/05/04 00:07:59;;;;;;;0.20;0.20;;;16.80;99.90;;;;;;4974062;28;20031;-85
2023/05/04 00:10:26;;;;;;;0.10;0.10;;;16.70;99.90;;;;;;4974405;28;20034;-86
2023/05/04 00:12:52;;;;;;;0.25;0.25;;;16.70;99.90;;;;;;4973984;28;20023;-85
2023/05/04 00:15:18;;;;;;;0.10;0.10;;;16.70;99.90;;;;;;4973493;28;20388;-86
2023/05/04 00:17:44;;;;;;;0.10;0.10;;;16.80;99.90;;;;;;4973933;28;20497;-86
2023/05/04 00:20:10;;;;;;;0.60;0.60;;;16.70;99.90;;;;;;4974562;28;20041;-85
2023/05/04 00:22:36;;;;;;;0.20;0.20;;;16.80;99.90;;;;;;4973880;28;20023;-86
2023/05/04 00:25:02;;;;;;;0.17;0.17;;;16.80;99.90;;;;;;4974178;28;20491;-86
2023/05/04 00:27:27;;;;;;;0.13;0.13;;;16.70;99.90;;;;;;4973941;28;20027;-85
2023/05/04 00:29:53;;;;;;;1.17;0.30;;;16.80;99.90;;;;;;4973372;28;20031;-85
2023/05/04 00:32:18;;;;;;;0.20;0.20;;;16.80;99.90;;;;;;4974131;28;20027;-86
2023/05/04 00:34:44;;;;;;;0.17;0.17;;;16.80;99.90;;;;;;4973422;28;20034;-85
2023/05/04 00:37:10;;;;;;;0.20;0.20;;;16.70;99.90;;;;;;4973746;28;20023;-85
2023/05/04 00:39:35;;;;;;;0.10;0.10;;;16.80;99.90;;;;;;4956695;28;20035;-86
2023/05/04 00:42:02;;;;;;;0.13;0.13;;;16.70;99.90;;;;;;4973711;28;20479;-85
2023/05/04 00:44:27;;;;;;;0.00;0.00;;;16.70;99.90;;;;;;4972919;28;20097;-85
2023/05/04 00:46:54;;;;;;;0.28;0.17;;;16.60;99.90;;;;;;4956329;28;20497;-86
2023/05/04 00:49:20;;;;;;;0.32;0.32;;;16.60;99.90;;;;;;4974050;28;20030;-86
2023/05/04 00:51:47;;;;;;;0.10;0.10;;;16.60;99.90;;;;;;4956364;28;20019;-86
2023/05/04 00:54:15;;;;;;;0.13;0.13;;;16.50;99.90;;;;;;4956185;28;20031;-85
2023/05/04 00:56:42;;;;;;;0.88;0.82;;;16.50;99.90;;;;;;4973598;28;20173;-85
2023/05/04 00:59:08;;;;;;;0.15;0.15;;;16.50;99.90;;;;;;4973186;28;20027;-85
2023/05/04 01:01:34;;;;;;;0.10;0.10;;;16.50;99.90;;;;;;4975132;28;20034;-86
2023/05/04 01:04:00;;;;;;;0.20;0.20;;;16.50;99.90;;;;;;4977971;28;20038;-85
2023/05/04 01:06:48;;;;;;;0.30;0.20;;;16.40;99.90;;;;;;4978546;28;20019;-86
2023/05/04 01:09:48;;;;;;;0.47;0.47;;;16.40;99.90;;;;;;4976747;28;20146;-86
2023/05/04 01:12:24;;;;;;;0.10;0.10;;;16.40;99.90;;;;;;4963337;28;20043;-84
2023/05/04 01:14:52;;;;;;;0.10;0.10;;;16.30;99.90;;;;;;4977563;28;20026;-85
2023/05/04 01:17:18;;;;;;;0.10;0.10;;;16.30;99.90;;;;;;4977028;28;20085;-86
2023/05/04 01:19:44;;;;;;;0.57;0.30;;;16.30;99.90;;;;;;4977693;28;20439;-85
2023/05/04 01:22:09;;;;;;;0.28;0.28;;;16.20;99.90;;;;;;4959690;28;20597;-85
2023/05/04 01:24:35;;;;;;;0.30;0.30;;;16.30;99.90;;;;;;4976541;28;20101;-86
2023/05/04 01:27:15;;;;;;;0.13;0.13;;;16.20;99.90;;;;;;4976848;28;20102;-86
2023/05/04 01:30:01;;;;;;;0.20;0.20;;;16.20;99.90;;;;;;4976975;28;20027;-86
2023/05/04 01:32:30;;;;;;;0.20;0.20;;;16.20;99.90;;;;;;4976886;28;20034;-86
2023/05/04 01:34:56;;;;;;;0.10;0.10;;;16.20;99.90;;;;;;4976635;28;20042;-86
2023/05/04 01:37:22;;;;;;;0.10;0.10;;;16.10;99.90;;;;;;4976716;28;20031;-86
2023/05/04 01:39:47;;;;;;;0.10;0.10;;;16.10;99.90;;;;;;4977109;28;20118;-86
2023/05/04 01:42:13;;;;;;;0.30;0.20;;;16.10;99.90;;;;;;4976194;28;20356;-86
2023/05/04 01:44:39;;;;;;;0.10;0.10;;;16.20;99.90;;;;;;4955740;29;20057;-86
2023/05/04 01:47:05;;;;;;;0.20;0.10;;;16.20;99.90;;;;;;4957544;28;20031;-86
2023/05/04 01:49:31;;;;;;;0.20;0.20;;;16.00;99.90;;;;;;4955913;29;20491;-86
2023/05/04 01:51:56;;;;;;;0.08;0.08;;;16.00;99.90;;;;;;4957222;29;20075;-85
2023/05/04 01:54:22;;;;;;;0.43;0.20;;;15.90;99.90;;;;;;4957155;29;20032;-86
2023/05/04 01:56:48;;;;;;;0.10;0.10;;;15.80;99.90;;;;;;4956896;29;20060;-85
2023/05/04 01:59:14;;;;;;;0.63;0.35;;;15.90;99.90;;;;;;4957159;29;20030;-86
2023/05/04 02:01:40;;;;;;;0.30;0.20;;;15.80;99.90;;;;;;4957334;29;20035;-86
2023/05/04 02:04:06;;;;;;;0.10;0.10;;;15.80;99.90;;;;;;4956974;29;20046;-86
2023/05/04 02:06:32;;;;;;;0.22;0.22;;;15.80;99.90;;;;;;4956620;29;20063;-85
2023/05/04 02:08:57;;;;;;;0.35;0.30;;;15.80;99.90;;;;;;4956916;29;20033;-85
2023/05/04 02:11:23;;;;;;;0.13;0.13;;;15.70;99.90;;;;;;4956311;28;20058;-86
2023/05/04 02:13:49;;;;;;;0.10;0.10;;;15.80;99.90;;;;;;4955398;29;20488;-85
2023/05/04 02:16:14;;;;;;;0.10;0.10;;;15.70;99.90;;;;;;4955825;29;20122;-86
2023/05/04 02:18:45;;;;;;;0.28;0.28;;;15.70;99.90;;;;;;4956534;29;20023;-86
2023/05/04 02:21:12;;;;;;;0.10;0.10;;;15.70;99.90;;;;;;4955646;29;20028;-86
2023/05/04 02:23:37;;;;;;;0.10;0.10;;;15.50;99.90;;;;;;4955211;29;20491;-86
2023/05/04 02:26:03;;;;;;;0.00;0.00;;;15.60;99.90;;;;;;4956647;29;20038;-86
2023/05/04 02:28:29;;;;;;;0.10;0.10;;;15.50;99.90;;;;;;4956580;29;20570;-86
2023/05/04 02:30:54;;;;;;;0.13;0.13;;;15.40;99.90;;;;;;4955339;29;20443;-86
2023/05/04 02:33:20;;;;;;;0.20;0.20;;;15.40;99.90;;;;;;4955156;29;20413;-86
2023/05/04 02:35:46;;;;;;;0.15;0.15;;;15.40;99.90;;;;;;4956232;29;20523;-86
2023/05/04 02:38:11;;;;;;;0.10;0.10;;;15.30;99.90;;;;;;4956400;29;20027;-86
2023/05/04 02:40:37;;;;;;;0.10;0.10;;;15.30;99.90;;;;;;4955861;29;20411;-86
2023/05/04 02:43:02;;;;;;;0.32;0.20;;;15.20;99.90;;;;;;4956243;29;20102;-85
2023/05/04 02:45:28;;;;;;;0.20;0.20;;;15.10;99.90;;;;;;4971502;28;20134;-86
2023/05/04 02:47:54;;;;;;;0.55;0.43;;;15.10;99.90;;;;;;4975376;28;20509;-85
2023/05/04 02:50:20;;;;;;;0.30;0.30;;;15.20;99.90;;;;;;4975621;28;20544;-86
2023/05/04 02:52:46;;;;;;;0.30;0.30;;;15.20;99.90;;;;;;4975443;28;20476;-86
2023/05/04 02:55:11;;;;;;;0.15;0.15;;;15.20;99.90;;;;;;4974898;28;20034;-86
2023/05/04 02:57:37;;;;;;;0.10;0.10;;;15.20;99.90;;;;;;4975342;28;20069;-85
2023/05/04 03:00:05;;;;;;;0.20;0.20;;;15.10;99.90;;;;;;4975193;28;20063;-86
2023/05/04 03:02:31;;;;;;;0.00;0.00;;;14.90;99.90;;;;;;4975454;28;20034;-85
2023/05/04 03:04:56;;;;;;;0.25;0.25;;;15.00;99.90;;;;;;4975062;28;20047;-86
2023/05/04 03:07:22;;;;;;;0.10;0.10;;;14.90;99.90;;;;;;4974966;28;20023;-85
2023/05/04 03:09:48;;;;;;;0.10;0.10;;;15.00;99.90;;;;;;4974697;28;20035;-86
2023/05/04 03:12:13;;;;;;;0.30;0.30;;;15.00;99.90;;;;;;4957719;28;20031;-85
2023/05/04 03:14:39;;;;;;;0.10;0.10;;;14.90;99.90;;;;;;4975317;28;20065;-86
2023/05/04 03:17:05;;;;;;;0.10;0.10;;;14.80;99.90;;;;;;4974954;28;20106;-85
2023/05/04 03:19:30;;;;;;;8.20;0.40;;;14.80;99.90;;;;;;4975023;28;20085;-86
2023/05/04 03:21:56;;;;;;;0.43;0.43;;;14.70;99.90;;;;;;4974913;28;20082;-86
2023/05/04 03:24:22;;;;;;;0.10;0.10;;;14.80;99.90;;;;;;4973790;28;20031;-85
2023/05/04 03:26:47;;;;;;;0.13;0.13;;;14.70;99.90;;;;;;4974867;28;20027;-85
2023/05/04 03:29:13;;;;;;;0.10;0.10;;;14.60;99.90;;;;;;4957726;28;20027;-85
2023/05/04 03:31:39;;;;;;;0.20;0.20;;;14.60;99.90;;;;;;4974661;28;20026;-85
2023/05/04 03:34:04;;;;;;;0.20;0.20;;;14.60;99.90;;;;;;4974466;28;20022;-85
2023/05/04 03:36:30;;;;;;;0.10;0.10;;;14.50;99.90;;;;;;4957155;28;20106;-86
2023/05/04 03:38:56;;;;;;;0.50;0.50;;;14.50;99.90;;;;;;4956874;28;20030;-85
2023/05/04 03:41:21;;;;;;;0.10;0.10;;;14.40;99.90;;;;;;4974673;28;20064;-85
2023/05/04 03:43:47;;;;;;;0.15;0.15;;;14.40;99.90;;;;;;4974211;28;20077;-85
2023/05/04 03:46:12;;;;;;;0.13;0.13;;;14.30;99.90;;;;;;4956988;28;20037;-85
2023/05/04 03:48:39;;;;;;;0.10;0.10;;;14.20;99.90;;;;;;4957196;28;20084;-85
2023/05/04 03:51:05;;;;;;;0.20;0.20;;;14.20;99.90;;;;;;4974936;28;20113;-85
2023/05/04 03:53:33;;;;;;;0.25;0.25;;;14.10;99.90;;;;;;4973909;28;20027;-86
2023/05/04 03:55:59;;;;;;;0.28;0.28;;;14.20;99.90;;;;;;4974626;28;20083;-85
2023/05/04 03:58:24;;;;;;;0.60;0.38;;;14.20;99.90;;;;;;4974360;28;20502;-86
2023/05/04 04:00:50;;;;;;;0.30;0.30;;;14.10;99.90;;;;;;4974312;28;20034;-86
2023/05/04 04:03:16;;;;;;;0.20;0.20;;;14.10;99.90;;;;;;4956896;28;20023;-86
2023/05/04 04:05:41;;;;;;;0.47;0.47;;;14.10;99.90;;;;;;4956723;28;20027;-86
2023/05/04 04:08:07;;;;;;;0.10;0.10;;;14.00;99.90;;;;;;4973738;28;20065;-85
2023/05/04 04:10:33;;;;;;;0.10;0.10;;;14.00;99.90;;;;;;4957143;28;20034;-85
2023/05/04 04:12:59;;;;;;;0.57;0.32;;;14.00;99.90;;;;;;4974445;28;20022;-85
2023/05/04 04:15:25;;;;;;;0.60;0.45;;;14.00;99.90;;;;;;4974298;28;20117;-85
2023/05/04 04:17:51;;;;;;;0.15;0.15;;;14.00;99.90;;;;;;4974004;28;20025;-85
2023/05/04 04:20:17;;;;;;;0.10;0.10;;;14.00;99.90;;;;;;4974486;28;20026;-85
2023/05/04 04:22:42;;;;;;;0.32;0.32;;;13.90;99.90;;;;;;4973611;28;20353;-86
2023/05/04 04:25:09;;;;;;;0.32;0.32;;;13.90;99.90;;;;;;4973880;28;20074;-85
2023/05/04 04:27:35;;;;;;;2.35;0.30;;;13.80;99.90;;;;;;4956874;28;20050;-85
2023/05/04 04:30:02;;;;;;;1.48;1.00;;;13.80;99.90;;;;;;4974301;28;20114;-85
2023/05/04 04:32:28;;;;;;;0.10;0.10;;;13.80;99.90;;;;;;4974617;28;20386;-85
2023/05/04 04:34:54;;;;;;;0.10;0.10;;;13.80;99.90;;;;;;4974501;28;20035;-86
2023/05/04 04:37:20;;;;;;;0.30;0.20;;;13.70;99.90;;;;;;4977432;28;20023;-85
2023/05/04 04:39:46;;;;;;;0.10;0.10;;;13.80;99.90;;;;;;4960490;28;20033;-86
2023/05/04 04:42:12;;;;;;;0.20;0.20;;;13.80;99.90;;;;;;4978567;28;20051;-86
2023/05/04 04:44:38;;;;;;;0.20;0.20;;;13.80;99.90;;;;;;4977400;28;20114;-84
2023/05/04 04:47:05;;;;;;;0.10;0.10;;;13.70;99.90;;;;;;4988063;28;20126;-85
2023/05/04 04:49:31;;;;;;;0.10;0.10;;;13.80;99.90;;;;;;4997009;28;20034;-86
2023/05/04 04:51:56;;;;;;;0.17;0.17;;;13.70;99.90;;;;;;4997082;28;20045;-86
2023/05/04 04:54:22;;;;;;;0.20;0.20;;;13.80;99.90;;;;;;4997054;28;20026;-85
2023/05/04 04:56:48;;;;;;;0.10;0.10;;;13.90;99.90;;;;;;4997093;28;20105;-85
2023/05/04 04:59:13;;;;;;;0.30;0.30;;;13.80;99.90;;;;;;4996799;28;20030;-85
2023/05/04 05:01:41;;;;;;;5.82;1.33;;;13.80;99.90;;;;;;4996698;28;20038;-85
2023/05/04 05:04:06;;;;;;;0.10;0.10;;;13.90;99.90;;;;;;4996458;28;20124;-85
2023/05/04 05:06:32;;;;;;;0.13;0.13;;;13.90;99.90;;;;;;4996659;28;20447;-85
2023/05/04 05:08:58;;;;;;;0.32;0.32;;;13.90;99.90;;;;;;4996796;28;20035;-86
2023/05/04 05:11:24;;;;;;;0.40;0.40;;;13.90;99.90;;;;;;4996688;28;20033;-85
2023/05/04 05:13:49;;;;;;;0.10;0.10;;;13.80;99.90;;;;;;4996638;28;20109;-85
2023/05/04 05:16:15;;;;;;;0.10;0.10;;;13.90;99.90;;;;;;4979478;28;20077;-85
2023/05/04 05:18:41;;;;;;;0.10;0.10;;;14.10;99.90;;;;;;4996384;28;20390;-85
2023/05/04 05:21:08;;;;;;;0.10;0.10;;;14.10;99.90;;;;;;4996643;28;20098;-85
2023/05/04 05:23:34;;;;;;;0.47;0.47;;;14.10;99.90;;;;;;4978906;28;20042;-85
2023/05/04 05:26:00;;;;;;;0.40;0.40;;;14.10;99.90;;;;;;4979202;28;20049;-85
2023/05/04 05:28:26;;;;;;;0.10;0.10;;;14.20;99.90;;;;;;4996298;28;20030;-85
2023/05/04 05:30:51;;;;;;;0.10;0.10;;;14.30;99.90;;;;;;4996176;28;20027;-86
2023/05/04 05:33:17;;;;;;;0.10;0.10;;;14.40;99.90;;;;;;4995718;28;20026;-85
2023/05/04 05:35:43;;;;;;;0.17;0.17;;;14.50;99.90;;;;;;4968073;28;20058;-86
2023/05/04 05:38:09;;;;;;;0.30;0.30;;;14.60;99.90;;;;;;4940491;29;20043;-86
2023/05/04 05:40:35;;;;;;;0.13;0.13;;;14.60;99.90;;;;;;4957313;29;20361;-86
2023/05/04 05:43:01;;;;;;;1.55;0.52;;;14.70;99.90;;;;;;4957279;29;20027;-86
2023/05/04 05:45:27;;;;;;;0.73;0.65;;;14.90;99.90;;;;;;4957886;29;20039;-86
2023/05/04 05:47:53;;;;;;;0.45;0.45;;;15.00;99.90;;;;;;4960382;28;20121;-85
2023/05/04 05:50:19;;;;;;;0.10;0.10;;;15.00;99.90;;;;;;4957390;29;20027;-86
2023/05/04 05:52:44;;;;;;;0.47;0.47;;;15.10;99.90;;;;;;4940020;29;20046;-86
2023/05/04 05:55:10;;;;;;;0.10;0.10;;;15.20;99.90;;;;;;4957024;29;20078;-86
2023/05/04 05:57:36;;;;;;;3.40;1.02;;;15.20;99.90;;;;;;4957553;29;20023;-86
2023/05/04 06:00:03;;;;;;;0.20;0.20;;;15.20;99.90;;;;;;4957119;29;20029;-86
2023/05/04 06:02:29;;;;;;;0.38;0.38;;;15.30;99.90;;;;;;4957043;29;20031;-86
2023/05/04 06:04:55;;;;;;;0.10;0.10;;;15.40;99.90;;;;;;4939398;29;20050;-87
2023/05/04 06:07:21;;;;;;;0.85;0.28;;;15.50;99.90;;;;;;4957028;29;20035;-86
2023/05/04 06:09:46;;;;;;;0.77;0.30;;;15.50;99.90;;;;;;4957358;29;20027;-86
2023/05/04 06:12:13;;;;;;;0.40;0.40;;;15.60;99.90;;;;;;4939860;29;20028;-86
2023/05/04 06:14:39;;;;;;;0.73;0.52;;;15.60;99.90;;;;;;4956508;29;20586;-86
2023/05/04 06:17:05;;;;;;;0.45;0.45;;;15.70;99.90;;;;;;4956248;29;20125;-86
2023/05/04 06:19:34;;;;;;;0.10;0.10;;;15.80;99.90;;;;;;4956766;29;20392;-86
2023/05/04 06:22:00;;;;;;;0.10;0.10;;;15.80;99.90;;;;;;4957069;29;20023;-85
2023/05/04 06:24:26;;;;;;;0.75;0.75;;;15.90;99.90;;;;;;4956760;29;20051;-85
2023/05/04 06:26:51;;;;;;;0.65;0.55;;;15.90;99.90;;;;;;4956504;29;20048;-86
2023/05/04 06:29:17;;;;;;;0.30;0.25;;;15.90;99.90;;;;;;4957018;29;20031;-85
2023/05/04 06:31:45;;;;;;;0.10;0.10;;;16.00;99.90;;;;;;4956142;29;20023;-86
2023/05/04 06:34:10;;;;;;;0.17;0.17;;;16.10;99.90;;;;;;4956578;28;20035;-86
2023/05/04 06:36:36;;;;;;;0.22;0.22;;;16.20;99.90;;;;;;4956483;29;20041;-86
2023/05/04 06:39:01;;;;;;;0.30;0.30;;;16.20;99.90;;;;;;4956418;29;20411;-86
2023/05/04 06:41:27;;;;;;;0.10;0.10;;;16.30;99.90;;;;;;4956652;29;20090;-86
2023/05/04 06:43:53;;;;;;;0.20;0.20;;;16.30;99.90;;;;;;4956052;29;20510;-85
2023/05/04 06:46:19;;;;;;;0.45;0.45;;;16.40;99.90;;;;;;4960138;28;20018;-86
2023/05/04 06:48:44;;;;;;;0.17;0.17;;;16.40;99.90;;;;;;4975473;28;20043;-85
2023/05/04 06:51:10;;;;;;;0.10;0.10;;;16.50;99.90;;;;;;4975271;28;20026;-86
2023/05/04 06:53:35;;;;;;;0.15;0.15;;;16.60;99.90;;;;;;4958242;28;20027;-85
2023/05/04 06:56:01;;;;;;;0.10;0.10;;;16.70;99.90;;;;;;4975131;28;20391;-86
2023/05/04 06:58:27;;;;;;;0.10;0.10;;;16.80;99.90;;;;;;4974249;28;20476;-85
2023/05/04 07:00:52;;;;;;;1.17;0.50;;;16.80;99.90;;;;;;4974962;28;20111;-86
2023/05/04 07:03:18;;;;;;;0.28;0.28;;;16.90;99.90;;;;;;4957402;28;20502;-85
2023/05/04 07:05:44;;;;;;;0.15;0.15;;;17.00;99.90;;;;;;4957523;28;20026;-86
2023/05/04 07:08:10;;;;;;;0.10;0.10;;;17.10;99.90;;;;;;4975178;28;20543;-85
2023/05/04 07:10:36;;;;;;;0.40;0.25;;;17.10;99.90;;;;;;4974846;28;20419;-86
2023/05/04 07:13:02;;;;;;;0.32;0.10;;;17.20;99.90;;;;;;4974789;28;20034;-86
2023/05/04 07:15:28;;;;;;;0.30;0.30;;;17.20;99.90;;;;;;4974604;28;20027;-86
2023/05/04 07:17:54;;;;;;;0.10;0.10;;;17.20;99.90;;;;;;4975389;28;20055;-86
2023/05/04 07:20:28;;;;;;;0.10;0.10;;;17.30;99.90;;;;;;5110561;27;20408;-85
2023/05/04 07:22:58;;;;;;;0.20;0.20;;;17.40;99.90;;;;;;5109301;28;20536;-86
2023/05/04 07:25:26;;;;;;;0.13;0.13;;;17.50;99.90;;;;;;5110204;28;20032;-85
2023/05/04 07:27:52;;;;;;;1.10;0.52;;;17.60;99.90;;;;;;5110303;28;20372;-85
2023/05/04 07:30:19;;;;;;;0.65;0.50;;;17.60;99.90;;;;;;5110445;28;20088;-85
2023/05/04 07:32:45;;;;;;;0.20;0.20;;;17.70;99.90;;;;;;5109822;28;20032;-85
2023/05/04 07:35:11;;;;;;;0.15;0.15;;;17.60;99.90;;;;;;5110014;28;20077;-84
2023/05/04 07:37:36;;;;;;;0.38;0.30;;;17.80;99.90;;;;;;5110204;28;20450;-86
2023/05/04 07:40:04;;;;;;;0.22;0.22;;;17.90;99.90;;;;;;5108714;28;20128;-85
2023/05/04 07:42:30;;;;;;;2.92;1.23;;;17.90;99.90;;;;;;5110248;28;20016;-84
2023/05/04 07:44:56;;;;;;;0.08;0.08;;;17.90;99.90;;;;;;5109446;28;20088;-85
2023/05/04 07:47:22;;;;;;;6.75;1.02;;;18.00;99.90;;;;;;5110037;28;20467;-86
2023/05/04 07:49:47;;;;;;;0.25;0.25;;;18.10;99.90;;;;;;5110021;28;20110;-85
2023/05/04 07:52:13;;;;;;;0.22;0.22;;;18.20;99.90;;;;;;5110028;28;20063;-85
2023/05/04 07:54:38;;;;;;;0.47;0.28;;;18.20;99.90;;;;;;5109821;28;20134;-85
2023/05/04 07:57:04;;;;;;;0.20;0.20;;;18.40;99.90;;;;;;5108996;28;20429;-85
2023/05/04 07:59:30;;;;;;;1.27;1.17;;;18.30;99.90;;;;;;5109546;28;20039;-85
2023/05/04 08:01:56;;;;;;;0.30;0.30;;;18.30;99.90;;;;;;5109592;28;20016;-85
2023/05/04 08:04:22;;;;;;;0.65;0.47;;;18.30;99.90;;;;;;5109688;28;20035;-85
2023/05/04 08:06:48;;;;;;;0.20;0.20;;;18.50;99.90;;;;;;5109689;28;20494;-85
2023/05/04 08:09:15;;;;;;;0.43;0.43;;;18.40;99.90;;;;;;5109380;28;20193;-85
2023/05/04 08:11:41;;;;;;;0.20;0.20;;;18.60;99.90;;;;;;5109869;28;20050;-85
2023/05/04 08:14:07;;;;;;;0.60;0.60;;;18.50;99.90;;;;;;5109332;28;20468;-85
2023/05/04 08:16:33;;;;;;;0.57;0.50;;;18.60;99.90;;;;;;5109674;28;20085;-85
2023/05/04 08:19:00;;;;;;;0.20;0.20;;;18.70;99.90;;;;;;5109148;28;20515;-85
2023/05/04 08:21:25;;;;;;;0.25;0.25;;;18.90;99.90;;;;;;5109144;28;20038;-85
2023/05/04 08:23:51;;;;;;;0.35;0.20;;;18.90;99.90;;;;;;5109142;28;20046;-85
2023/05/04 08:26:18;;;;;;;0.43;0.43;;;19.10;99.90;;;;;;5109381;28;20024;-85
2023/05/04 08:28:45;;;;;;;0.65;0.40;;;18.90;99.90;;;;;;5108776;28;20141;-85
2023/05/04 08:31:11;;;;;;;0.20;0.20;;;19.10;99.90;;;;;;5099532;28;20035;-85
2023/05/04 08:33:37;;;;;;;2.08;0.85;;;19.10;99.90;;;;;;5095633;28;20024;-85
2023/05/04 08:36:04;;;;;;;4.68;1.10;;;19.20;99.90;;;;;;5095574;28;20031;-86
2023/05/04 08:38:30;;;;;;;0.13;0.13;;;19.40;99.90;;;;;;5095504;28;20027;-85
2023/05/04 08:40:56;;;;;;;0.10;0.10;;;19.20;99.90;;;;;;5094466;28;20032;-86
2023/05/04 08:43:22;;;;;;;0.52;0.30;;;19.30;99.90;;;;;;5095562;28;20069;-85
2023/05/04 08:45:49;;;;;;;0.10;0.10;;;19.50;99.90;;;;;;5095281;28;20028;-85
2023/05/04 08:48:14;;;;;;;0.20;0.20;;;19.60;99.90;;;;;;5095365;28;20016;-86
2023/05/04 08:50:41;;;;;;;0.10;0.10;;;19.80;99.90;;;;;;5095329;28;20074;-85
2023/05/04 08:53:11;;;;;;;0.25;0.25;;;19.70;99.90;;;;;;5095108;28;20020;-85
2023/05/04 08:55:40;;;;;;;1.25;0.80;;;19.80;99.90;;;;;;5094152;28;20034;-86
2023/05/04 08:58:10;;;;;;;0.10;0.10;;;19.90;99.90;;;;;;5094460;28;20454;-85
2023/05/04 09:00:40;;;;;;;0.43;0.25;;;20.10;99.90;;;;;;5094883;28;20380;-85
2023/05/04 09:03:08;;;;;;;0.20;0.20;;;20.00;99.90;;;;;;5093514;28;20024;-85
2023/05/04 09:05:34;;;;;;;0.85;0.63;;;20.10;99.90;;;;;;5094921;28;20107;-86
2023/05/04 09:08:00;;;;;;;1.05;0.95;;;20.10;99.90;;;;;;5095182;28;20100;-85
2023/05/04 09:10:26;;;;;;;0.35;0.35;;;20.30;99.90;;;;;;5095107;28;20111;-84
2023/05/04 09:12:55;;;;;;;0.93;0.30;;;20.30;99.90;;;;;;5127368;27;20024;-85
2023/05/04 09:15:21;;;;;;;0.10;0.10;;;20.40;99.90;;;;;;5094651;28;20436;-85
2023/05/04 09:18:08;;;;;;;0.10;0.10;;;20.40;99.90;;;;;;5095061;28;20032;-85
2023/05/04 09:20:45;;;;;;;0.10;0.10;;;20.50;99.90;;;;;;5094321;28;20052;-85
2023/05/04 09:23:12;;;;;;;0.40;0.30;;;20.80;99.90;;;;;;5094709;28;20016;-85
2023/05/04 09:25:51;;;;;;;0.32;0.30;;;20.70;99.90;;;;;;5094141;28;20073;-85
2023/05/04 09:28:18;;;;;;;0.90;0.30;;;20.70;99.90;;;;;;5094472;28;20380;-85
2023/05/04 09:30:44;;;;;;;0.10;0.10;;;20.90;99.90;;;;;;5094690;28;20031;-85
2023/05/04 09:33:11;;;;;;;0.17;0.17;;;21.00;99.90;;;;;;5094054;28;20020;-86
2023/05/04 09:35:40;;;;;;;0.20;0.20;;;21.10;99.90;;;;;;5094558;28;20036;-85
2023/05/04 09:38:06;;;;;;;0.17;0.17;;;21.30;99.90;;;;;;5094141;28;20028;-85
2023/05/04 09:40:39;;;;;;;0.20;0.20;;;21.10;99.90;;;;;;5093879;28;20039;-86
2023/05/04 09:43:06;;;;;;;0.05;0.05;;;21.20;99.90;;;;;;5093108;28;20556;-85
2023/05/04 09:45:43;;;;;;;0.10;0.10;;;21.20;99.90;;;;;;5094606;28;20392;-85
2023/05/04 09:48:24;;;;;;;0.20;0.20;;;21.40;99.90;;;;;;5094265;28;20047;-85
2023/05/04 09:50:57;;;;;;;0.45;0.15;;;21.70;99.90;;;;;;5094069;28;20024;-85
2023/05/04 09:53:25;;;;;;;0.10;0.10;;;21.60;99.90;;;;;;5093949;28;20035;-85
2023/05/04 09:55:56;;;;;;;0.10;0.10;;;21.60;99.90;;;;;;5093373;28;20154;-85
2023/05/04 09:58:23;;;;;;;0.05;0.05;;;21.70;99.90;;;;;;5093803;28;20035;-85
2023/05/04 10:00:49;;;;;;;0.28;0.28;;;21.70;99.90;;;;;;5093975;28;20039;-85
2023/05/04 10:03:15;;;;;;;0.10;0.10;;;21.90;99.90;;;;;;5093818;28;20476;-86
2023/05/04 10:05:41;;;;;;;0.00;0.00;;;21.90;99.90;;;;;;5094061;28;20032;-86
2023/05/04 10:08:07;;;;;;;0.10;0.10;;;21.90;99.90;;;;;;5093718;28;20055;-85
2023/05/04 10:10:34;;;;;;;0.00;0.00;;;21.90;99.90;;;;;;5093669;28;20039;-86
2023/05/04 10:13:00;;;;;;;1.13;0.22;;;21.90;99.90;;;;;;5093772;28;20163;-85
2023/05/04 10:15:27;;;;;;;0.30;0.30;;;22.00;99.90;;;;;;5093710;28;20055;-86
2023/05/04 10:18:38;;;;;;;0.30;0.30;;;22.10;99.90;;;;;;5093901;28;20029;-86
2023/05/04 10:21:28;;;;;;;0.10;0.10;;;22.20;99.90;;;;;;5087343;28;20056;-86
2023/05/04 10:23:53;;;;;;;0.10;0.10;;;22.40;99.90;;;;;;5092830;28;20012;-86
2023/05/04 10:26:30;;;;;;;0.13;0.13;;;22.30;99.90;;;;;;5093602;28;20034;-86
2023/05/04 10:29:12;;;;;;;0.28;0.28;;;22.50;99.90;;;;;;5093320;28;20024;-86
2023/05/04 10:31:42;;;;;;;0.10;0.10;;;22.40;99.90;;;;;;5093149;28;20016;-85
2023/05/04 10:34:09;;;;;;;0.10;0.10;;;22.30;99.90;;;;;;5093424;28;20111;-85
2023/05/04 10:36:40;;;;;;;0.20;0.20;;;22.40;99.90;;;;;;5091871;28;20136;-85
2023/05/04 10:39:20;;;;;;;0.15;0.15;;;22.60;99.90;;;;;;5091673;28;20043;-85
2023/05/04 10:42:03;;;;;;;0.20;0.20;;;22.70;99.90;;;;;;5093088;28;20024;-85
2023/05/04 10:44:34;;;;;;;0.20;0.20;;;22.90;99.90;;;;;;5093408;28;20043;-85
2023/05/04 10:47:04;;;;;;;0.10;0.10;;;22.70;99.90;;;;;;5093321;28;20408;-86
2023/05/04 10:49:31;;;;;;;0.73;0.52;;;22.90;99.90;;;;;;5093052;28;20054;-86
2023/05/04 10:52:08;;;;;;;0.10;0.10;;;23.00;99.90;;;;;;5092803;28;20031;-85
2023/05/04 10:54:39;;;;;;;0.32;0.32;;;23.00;99.90;;;;;;5092195;28;20028;-85
2023/05/04 10:57:10;;;;;;;0.15;0.15;;;23.20;99.90;;;;;;5092634;28;20016;-85
2023/05/04 10:59:36;;;;;;;0.38;0.20;;;23.40;99.90;;;;;;5092672;28;20032;-86
2023/05/04 11:02:03;;;;;;;0.10;0.10;;;23.50;99.90;;;;;;5093243;28;20026;-85
2023/05/04 11:04:30;;;;;;;0.20;0.20;;;23.50;99.90;;;;;;5092693;28;20055;-86
2023/05/04 11:07:01;;;;;;;0.22;0.22;;;23.70;99.90;;;;;;5091178;28;20097;-85
2023/05/04 11:09:27;;;;;;;0.20;0.20;;;23.70;99.90;;;;;;5092659;28;20024;-86
2023/05/04 11:11:56;;;;;;;0.30;0.30;;;23.90;99.90;;;;;;5092664;28;20028;-85
2023/05/04 11:14:26;;;;;;;0.17;0.17;;;23.60;99.90;;;;;;5093063;28;20471;-85
2023/05/04 11:17:13;;;;;;;0.10;0.10;;;23.30;99.90;;;;;;5091419;28;20027;-85
2023/05/04 11:19:49;;;;;;;0.35;0.35;;;23.70;99.90;;;;;;5092031;28;20142;-86
2023/05/04 11:22:19;;;;;;;0.20;0.20;;;24.00;99.90;;;;;;5092131;28;20530;-85
2023/05/04 11:24:47;;;;;;;0.00;0.00;;;24.30;99.90;;;;;;5093017;28;20121;-86
2023/05/04 11:27:27;;;;;;;0.65;0.65;;;23.80;99.90;;;;;;5092092;28;20031;-85
2023/05/04 11:30:00;;;;;;;0.32;0.32;;;23.70;99.90;;;;;;5092893;28;20032;-85
2023/05/04 11:32:45;;;;;;;0.52;0.30;;;24.00;99.90;;;;;;5092223;28;20391;-86
2023/05/04 11:35:15;;;;;;;0.25;0.25;;;24.70;99.90;;;;;;5092419;28;20093;-85
2023/05/04 11:37:42;;;;;;;0.03;0.03;;;25.20;99.90;;;;;;5090658;28;20165;-86
2023/05/04 11:40:12;;;;;;;0.13;0.13;;;25.20;99.90;;;;;;5091015;28;20111;-86
2023/05/04 11:42:39;;;;;;;0.10;0.10;;;25.00;99.90;;;;;;5091193;28;20141;-85
2023/05/04 11:45:09;;;;;;;0.77;0.40;;;24.90;99.90;;;;;;5092546;28;20024;-86
2023/05/04 11:47:36;;;;;;;0.28;0.28;;;25.80;99.90;;;;;;5092203;28;20031;-86
2023/05/04 11:50:02;;;;;;;0.15;0.15;;;25.60;99.90;;;;;;5092169;28;20035;-85
2023/05/04 11:52:29;;;;;;;0.25;0.25;;;25.30;99.90;;;;;;5092212;28;20032;-86
2023/05/04 11:54:58;;;;;;;0.75;0.60;;;25.70;99.90;;;;;;5092213;28;20024;-86
2023/05/04 11:57:24;;;;;;;0.47;0.47;;;25.80;99.90;;;;;;5092578;28;20047;-86
2023/05/04 11:59:50;;;;;;;0.05;0.05;;;26.20;99.90;;;;;;5092279;28;20032;-86
2023/05/04 12:02:19;;;;;;;0.10;0.10;;;26.50;99.90;;;;;;5092346;28;20032;-86
2023/05/04 12:04:45;;;;;;;0.30;0.30;;;26.60;99.90;;;;;;5091729;28;20028;-85
2023/05/04 12:07:10;;;;;;;0.17;0.17;;;27.10;99.90;;;;;;5096010;28;20357;-86
2023/05/04 12:09:46;;;;;;;0.20;0.20;;;27.30;99.90;;;;;;5096575;28;20028;-86
2023/05/04 12:12:15;;;;;;;1.00;0.60;;;27.70;99.90;;;;;;5096038;28;20446;-86
2023/05/04 12:14:48;;;;;;;0.22;0.22;;;27.50;99.90;;;;;;5095691;28;20507;-86
2023/05/04 12:17:14;;;;;;;0.30;0.30;;;27.10;99.90;;;;;;5095716;28;20035;-86
2023/05/04 12:19:51;;;;;;;0.10;0.08;;;26.80;99.90;;;;;;5095141;28;20060;-86
2023/05/04 12:22:24;;;;;;;0.10;0.10;;;27.20;99.90;;;;;;5094476;28;20020;-86
2023/05/04 12:24:50;;;;;;;0.47;0.30;;;26.30;99.90;;;;;;5096092;28;20056;-86
2023/05/04 12:27:15;;;;;;;0.15;0.10;;;26.70;99.90;;;;;;5096113;28;20467;-86
2023/05/04 12:29:41;;;;;;;0.10;0.10;;;27.10;99.90;;;;;;5095632;28;20080;-86
2023/05/04 12:32:07;;;;;;;0.20;0.20;;;27.40;99.90;;;;;;5095653;28;20016;-86
2023/05/04 12:34:33;;;;;;;0.08;0.08;;;27.20;99.90;;;;;;5095223;28;20362;-86
2023/05/04 12:36:58;;;;;;;0.00;0.00;;;27.00;99.90;;;;;;5095682;28;20456;-86
2023/05/04 12:39:24;;;;;;;0.40;0.40;;;26.60;99.90;;;;;;5095905;28;20044;-86
2023/05/04 12:41:49;;;;;;;0.00;0.00;;;27.00;99.90;;;;;;5095354;28;20016;-86
2023/05/04 12:44:15;;;;;;;0.20;0.20;;;26.90;99.90;;;;;;5095480;28;20038;-86
2023/05/04 12:46:42;;;;;;;0.38;0.32;;;27.20;99.90;;;;;;5095237;28;20044;-86
2023/05/04 12:49:09;;;;;;;0.20;0.17;;;27.40;99.90;;;;;;5094930;28;20028;-86